Time;durP1;ratioP1;P1;durP2;ratioP2;P2;SDS_P1;SDS_P2;PMS_P1;PMS_P2;Temp;Humidity;BMP_temperature;BMP_pressure;BME280_temperature;BME280_humidity;BME280_pressure;Samples;Min_cycle;Max_cycle;Signal;HPM_P1;HPM_P2
2022/01/03 00:00:51;;;;;;;20.60;11.20;;;;;;;1.15;82.78;100740.37;107074;1252;60614;-75
2022/01/03 00:03:21;;;;;;;19.90;11.00;;;;;;;1.15;83.13;100743.15;107230;1251;73603;-76
2022/01/03 00:05:50;;;;;;;21.50;11.10;;;;;;;1.16;83.29;100736.59;107322;1251;69951;-75
2022/01/03 00:08:20;;;;;;;17.60;10.70;;;;;;;1.12;83.18;100729.69;107289;1250;66989;-73
2022/01/03 00:10:52;;;;;;;18.20;11.40;;;;;;;1.08;83.39;100728.79;107226;1251;71990;-73
2022/01/03 00:13:21;;;;;;;18.10;10.80;;;;;;;1.09;83.35;100721.89;107181;1251;62672;-78
2022/01/03 00:15:52;;;;;;;18.20;10.70;;;;;;;1.05;83.42;100708.46;107369;1251;60369;-76
2022/01/03 00:18:23;;;;;;;17.20;10.80;;;;;;;1.13;83.61;100691.23;107120;1253;71825;-75
2022/01/03 00:21:06;;;;;;;19.40;10.80;;;;;;;1.11;83.25;100698.15;107228;1250;71719;-73
2022/01/03 00:23:38;;;;;;;20.00;11.20;;;;;;;1.18;83.01;100701.00;107062;1251;71976;-73
2022/01/03 00:26:10;;;;;;;20.30;11.10;;;;;;;1.24;83.04;100688.95;107073;1253;74323;-72
2022/01/03 00:28:57;;;;;;;16.30;10.40;;;;;;;1.23;82.77;100684.20;107183;1251;62494;-73
2022/01/03 00:31:42;;;;;;;19.60;11.10;;;;;;;1.19;82.96;100684.67;107138;1251;59981;-72
2022/01/03 00:34:14;;;;;;;16.60;9.90;;;;;;;1.19;83.61;100676.60;107233;1250;74830;-73
2022/01/03 00:36:51;;;;;;;16.30;10.10;;;;;;;1.14;83.33;100677.29;107003;1250;72872;-75
2022/01/03 00:39:20;;;;;;;16.80;11.60;;;;;;;1.07;83.53;100671.34;107309;1251;71634;-74
2022/01/03 00:41:50;;;;;;;16.90;10.90;;;;;;;1.11;83.99;100675.52;107151;1251;74417;-75
2022/01/03 00:44:22;;;;;;;20.10;11.60;;;;;;;1.16;83.64;100675.85;107377;1249;58887;-73
2022/01/03 00:46:55;;;;;;;16.60;10.70;;;;;;;1.20;83.30;100668.01;107339;1251;58939;-75
2022/01/03 00:49:25;;;;;;;15.30;10.40;;;;;;;1.11;83.50;100665.58;107352;1251;71669;-75
2022/01/03 00:51:56;;;;;;;18.00;10.40;;;;;;;1.02;83.88;100663.11;107269;1251;70037;-74
2022/01/03 00:54:25;;;;;;;19.70;11.40;;;;;;;0.98;83.83;100651.23;107309;1250;69696;-73
2022/01/03 00:57:03;;;;;;;18.40;10.80;;;;;;;1.01;83.85;100644.44;107264;1251;72331;-73
2022/01/03 00:59:43;;;;;;;18.70;11.00;;;;;;;1.02;83.69;100632.40;107219;1251;61313;-73
2022/01/03 01:02:16;;;;;;;20.20;11.00;;;;;;;1.08;83.73;100616.08;107300;1251;61255;-75
2022/01/03 01:04:46;;;;;;;18.40;11.60;;;;;;;1.10;83.72;100614.65;106880;1250;455534;-75
2022/01/03 01:07:17;;;;;;;21.20;11.20;;;;;;;1.06;84.63;100597.46;107185;1251;71906;-73
2022/01/03 01:09:51;;;;;;;17.90;11.00;;;;;;;1.09;83.82;100567.35;107214;1251;69696;-72
2022/01/03 01:12:22;;;;;;;19.70;11.00;;;;;;;1.13;84.16;100555.70;106986;1251;73898;-74
2022/01/03 01:14:51;;;;;;;21.10;11.70;;;;;;;1.18;83.77;100541.48;107148;1253;59840;-72
2022/01/03 01:17:25;;;;;;;18.60;10.50;;;;;;;1.17;83.75;100539.59;107131;1253;59769;-72
2022/01/03 01:19:58;;;;;;;19.80;11.20;;;;;;;1.21;83.95;100554.05;107167;1251;72930;-72
2022/01/03 01:22:28;;;;;;;17.90;11.40;;;;;;;1.25;83.42;100537.27;107087;1252;72027;-74
2022/01/03 01:28:15;;;;;;;19.30;11.70;;;;;;;1.39;83.71;100533.31;107118;1251;75009;-74
2022/01/03 01:30:44;;;;;;;;;;;;;;;1.46;83.70;100577.50;107167;1251;62270;-74
2022/01/03 01:33:16;;;;;;;20.10;11.50;;;;;;;1.54;83.29;100568.80;107129;1253;62144;-74
2022/01/03 01:36:07;;;;;;;21.70;11.90;;;;;;;1.59;83.55;100537.17;107205;1251;72527;-73
2022/01/03 01:38:39;;;;;;;19.90;11.60;;;;;;;1.64;83.66;100533.91;107334;1250;73305;-73
2022/01/03 01:41:09;;;;;;;20.40;11.60;;;;;;;1.69;83.73;100519.12;107313;1251;70102;-74
2022/01/03 01:43:48;;;;;;;20.20;11.80;;;;;;;1.74;84.07;100515.48;107230;1251;75775;-72
2022/01/03 01:46:22;;;;;;;20.80;10.60;;;;;;;1.76;83.40;100513.52;107245;1251;61050;-72
2022/01/03 01:48:55;;;;;;;16.80;10.50;;;;;;;1.88;83.81;100513.25;107088;1251;58971;-72
2022/01/03 01:51:26;;;;;;;18.90;11.40;;;;;;;1.97;82.83;100512.89;107106;1251;74104;-72
2022/01/03 01:53:58;;;;;;;18.50;10.90;;;;;;;2.02;82.11;100519.70;107143;1251;71158;-73
2022/01/03 01:57:08;;;;;;;19.40;10.70;;;;;;;2.02;82.12;100525.23;107077;1251;71571;-74
2022/01/03 02:00:01;;;;;;;17.30;11.40;;;;;;;2.05;81.96;100548.11;107105;1251;74570;-74
2022/01/03 02:02:44;;;;;;;18.60;11.50;;;;;;;2.08;82.30;100550.89;107223;1251;60117;-74
2022/01/03 02:05:30;;;;;;;21.20;11.80;;;;;;;2.07;82.05;100542.68;107057;1249;58884;-72
2022/01/03 02:08:28;;;;;;;19.80;11.50;;;;;;;2.05;82.16;100520.80;107544;1251;72664;-73
2022/01/03 02:11:31;;;;;;;18.50;11.60;;;;;;;1.93;82.09;100521.61;107258;1250;72608;-74
2022/01/03 02:14:00;;;;;;;19.80;12.10;;;;;;;1.89;82.14;100519.40;107105;1251;70290;-72
2022/01/03 02:16:33;;;;;;;19.70;12.20;;;;;;;1.76;82.46;100517.64;107096;1251;72230;-71
2022/01/03 02:19:02;;;;;;;16.60;10.80;;;;;;;1.70;82.52;100513.06;107134;1251;59757;-73
2022/01/03 02:21:32;;;;;;;17.80;11.70;;;;;;;1.67;82.41;100508.73;107217;1251;58911;-73
2022/01/03 02:24:03;;;;;;;18.80;12.30;;;;;;;1.68;82.77;100493.05;107160;1251;73656;-72
2022/01/03 02:26:33;;;;;;;20.60;12.00;;;;;;;1.63;82.75;100488.30;106931;1250;70243;-73
2022/01/03 02:29:02;;;;;;;22.00;12.00;;;;;;;1.55;83.04;100502.83;107205;1251;69006;-72
2022/01/03 02:31:33;;;;;;;19.30;11.70;;;;;;;1.36;83.41;100513.85;107084;1251;72548;-74
2022/01/03 02:34:03;;;;;;;18.20;10.70;;;;;;;1.32;83.52;100513.17;107040;1251;59816;-74
2022/01/03 02:36:33;;;;;;;19.10;10.40;;;;;;;1.23;83.93;100519.85;106963;1251;60281;-73
2022/01/03 02:39:04;;;;;;;22.50;12.20;;;;;;;1.22;83.99;100522.45;107026;1251;72462;-73
2022/01/03 02:41:33;;;;;;;19.50;11.40;;;;;;;1.21;84.02;100522.84;106977;1253;70332;-72
2022/01/03 02:44:02;;;;;;;21.30;12.50;;;;;;;1.23;83.63;100526.19;106999;1250;69743;-73
2022/01/03 02:46:31;;;;;;;22.70;12.20;;;;;;;1.24;83.61;100537.45;107027;1250;74013;-72
2022/01/03 02:49:03;;;;;;;20.30;11.60;;;;;;;1.26;83.69;100545.81;107063;1250;58930;-72
2022/01/03 02:51:32;;;;;;;20.50;11.00;;;;;;;1.25;83.37;100540.84;107073;1251;60159;-74
2022/01/03 02:54:03;;;;;;;19.40;12.10;;;;;;;1.22;83.22;100540.79;107154;1250;73619;-72
2022/01/03 02:56:34;;;;;;;18.30;11.40;;;;;;;1.17;82.80;100538.41;108007;1251;73872;-73
2022/01/03 02:59:16;;;;;;;21.10;11.90;;;;;;;1.06;82.96;100530.58;107206;1251;67504;-74
2022/01/03 03:01:46;;;;;;;21.10;12.30;;;;;;;0.98;83.28;100523.83;107143;1250;73975;-74
2022/01/03 03:04:16;;;;;;;22.00;12.90;;;;;;;0.92;83.34;100514.27;107080;1251;63106;-74
2022/01/03 03:06:45;;;;;;;24.80;16.70;;;;;;;0.88;83.57;100506.52;107255;1251;62789;-73
2022/01/03 03:09:14;;;;;;;24.00;15.00;;;;;;;0.84;83.22;100509.60;107196;1250;73230;-72
2022/01/03 03:11:44;;;;;;;26.30;16.70;;;;;;;0.77;83.39;100512.22;107188;1251;72798;-74
2022/01/03 03:14:13;;;;;;;27.20;16.20;;;;;;;0.70;83.74;100513.66;107249;1250;71505;-73
2022/01/03 03:16:42;;;;;;;22.60;13.60;;;;;;;0.64;84.16;100516.60;107103;1251;74271;-74
2022/01/03 03:19:11;;;;;;;24.40;13.10;;;;;;;0.61;84.19;100510.56;106997;1251;59058;-74
2022/01/03 03:21:40;;;;;;;20.60;13.30;;;;;;;0.59;84.11;100511.83;107286;1250;59370;-74
2022/01/03 03:24:10;;;;;;;17.10;11.50;;;;;;;0.61;83.74;100519.31;107284;1251;72663;-74
2022/01/03 03:26:39;;;;;;;21.20;11.70;;;;;;;0.61;83.70;100518.09;107165;1250;72389;-76
2022/01/03 03:29:08;;;;;;;18.50;10.20;;;;;;;0.63;83.00;100503.82;107187;1251;71740;-73
2022/01/03 03:31:37;;;;;;;18.10;10.40;;;;;;;0.65;82.56;100494.11;107155;1250;75692;-76
2022/01/03 03:34:06;;;;;;;18.80;11.60;;;;;;;0.65;82.64;100485.91;107234;1251;59156;-75
2022/01/03 03:36:36;;;;;;;17.50;10.20;;;;;;;0.69;82.70;100493.49;107264;1249;59789;-74
2022/01/03 03:39:05;;;;;;;19.70;11.70;;;;;;;0.71;82.64;100490.67;107371;1249;72640;-73
2022/01/03 03:41:33;;;;;;;16.80;10.80;;;;;;;0.73;82.71;100482.20;107273;1251;72863;-73
2022/01/03 03:44:03;;;;;;;21.10;13.20;;;;;;;0.76;83.40;100487.21;107411;1251;68538;-73
2022/01/03 03:46:32;;;;;;;14.80;10.20;;;;;;;0.76;82.84;100477.13;107372;1250;71996;-75
2022/01/03 03:49:01;;;;;;;19.00;10.70;;;;;;;0.76;82.45;100462.55;107102;1251;60976;-75
2022/01/03 03:51:31;;;;;;;17.70;11.60;;;;;;;0.75;82.56;100464.65;107317;1249;61979;-73
2022/01/03 03:54:00;;;;;;;19.10;11.10;;;;;;;0.75;82.81;100457.95;107232;1251;72563;-71
2022/01/03 03:56:29;;;;;;;19.00;12.10;;;;;;;0.77;83.52;100452.55;107273;1249;70206;-74
2022/01/03 03:58:58;;;;;;;19.70;12.30;;;;;;;0.79;83.55;100451.30;107245;1251;67971;-71
2022/01/03 04:01:27;;;;;;;20.50;12.40;;;;;;;0.78;84.03;100449.95;107153;1251;71204;-73
2022/01/03 04:03:58;;;;;;;23.60;14.90;;;;;;;0.77;84.16;100449.28;107134;1251;63242;-73
2022/01/03 04:06:27;;;;;;;20.40;12.10;;;;;;;0.81;83.96;100452.44;107160;1251;60981;-72
2022/01/03 04:08:59;;;;;;;22.20;13.70;;;;;;;0.84;84.10;100451.62;107075;1251;72160;-74
2022/01/03 04:11:30;;;;;;;18.40;12.10;;;;;;;0.85;84.10;100441.48;107123;1251;70356;-74
2022/01/03 04:14:00;;;;;;;23.60;12.40;;;;;;;0.74;85.13;100432.61;107039;1252;69749;-73
2022/01/03 04:16:30;;;;;;;20.90;12.30;;;;;;;0.72;85.05;100423.94;106988;1252;71873;-74
2022/01/03 04:19:00;;;;;;;20.80;11.60;;;;;;;0.75;84.87;100412.34;107076;1250;61349;-74
2022/01/03 04:21:30;;;;;;;22.60;12.20;;;;;;;0.79;84.80;100406.70;107109;1252;60321;-75
2022/01/03 04:23:59;;;;;;;22.20;12.10;;;;;;;0.79;84.82;100405.35;107075;1251;72847;-73
2022/01/03 04:26:28;;;;;;;25.10;12.90;;;;;;;0.78;85.31;100401.60;106945;1252;70958;-75
2022/01/03 04:28:57;;;;;;;19.30;11.10;;;;;;;0.75;85.12;100417.31;107027;1251;69663;-73
2022/01/03 04:31:27;;;;;;;21.30;12.70;;;;;;;0.75;84.94;100415.42;107120;1251;74325;-73
2022/01/03 04:33:58;;;;;;;20.90;12.00;;;;;;;0.72;85.06;100415.19;107190;1249;60937;-74
2022/01/03 04:36:28;;;;;;;28.00;13.00;;;;;;;0.74;84.71;100402.28;107072;1251;62765;-73
2022/01/03 04:38:57;;;;;;;22.20;12.40;;;;;;;0.71;84.95;100399.13;107153;1250;74094;-75
2022/01/03 04:41:26;;;;;;;23.20;13.00;;;;;;;0.72;84.61;100398.90;107157;1251;71897;-73
2022/01/03 04:43:55;;;;;;;21.90;13.20;;;;;;;0.71;84.54;100386.94;107078;1253;68643;-74
2022/01/03 04:46:24;;;;;;;22.20;12.70;;;;;;;0.75;84.64;100396.42;107213;1250;71594;-70
2022/01/03 04:48:54;;;;;;;24.00;13.40;;;;;;;0.75;84.49;100404.11;107138;1251;60479;-72
2022/01/03 04:51:23;;;;;;;22.60;13.20;;;;;;;0.77;84.76;100403.19;107316;1249;61019;-73
2022/01/03 04:53:52;;;;;;;23.70;14.10;;;;;;;0.79;84.12;100401.08;107077;1250;74924;-71
2022/01/03 04:56:22;;;;;;;24.30;14.90;;;;;;;0.83;83.67;100407.95;107197;1250;74159;-72
2022/01/03 04:58:51;;;;;;;27.80;15.90;;;;;;;0.80;83.54;100404.45;107130;1251;68627;-70
2022/01/03 05:01:20;;;;;;;23.10;14.10;;;;;;;0.72;83.37;100403.56;107137;1249;73234;-73
2022/01/03 05:03:50;;;;;;;25.20;14.40;;;;;;;0.66;83.88;100399.46;107253;1249;62147;-71
2022/01/03 05:06:20;;;;;;;36.40;19.30;;;;;;;0.62;84.04;100391.08;106901;1250;58882;-73
2022/01/03 05:08:49;;;;;;;30.90;18.00;;;;;;;0.62;83.95;100384.91;106863;1250;73647;-70
2022/01/03 05:11:18;;;;;;;24.50;14.50;;;;;;;0.57;83.92;100381.98;107238;1251;71025;-70
2022/01/03 05:13:47;;;;;;;26.70;16.00;;;;;;;0.56;83.78;100375.70;107270;1250;70573;-76
2022/01/03 05:16:17;;;;;;;25.70;15.40;;;;;;;0.49;83.17;100362.73;107204;1250;73937;-75
2022/01/03 05:18:46;;;;;;;26.80;18.50;;;;;;;0.50;83.51;100365.08;107446;1251;60406;-71
2022/01/03 05:21:15;;;;;;;23.30;15.80;;;;;;;0.49;83.96;100362.06;107361;1251;60437;-76
2022/01/03 05:23:45;;;;;;;29.70;17.70;;;;;;;0.48;83.51;100358.67;107188;1252;73346;-73
2022/01/03 05:26:16;;;;;;;29.00;16.90;;;;;;;0.42;83.85;100353.04;107194;1249;71893;-73
2022/01/03 05:28:47;;;;;;;29.70;18.20;;;;;;;0.44;84.32;100346.47;107368;1249;71716;-72
2022/01/03 05:31:16;;;;;;;33.10;22.90;;;;;;;0.47;84.43;100349.80;106979;1251;73385;-73
2022/01/03 05:33:46;;;;;;;32.00;18.70;;;;;;;0.51;84.44;100347.92;107042;1251;59803;-78
2022/01/03 05:36:15;;;;;;;27.40;17.60;;;;;;;0.51;84.14;100342.61;106989;1251;61838;-76
2022/01/03 05:38:45;;;;;;;27.30;16.50;;;;;;;0.53;84.03;100334.33;106999;1251;73352;-71
2022/01/03 05:41:14;;;;;;;25.80;15.60;;;;;;;0.52;84.05;100326.48;106989;1250;69372;-67
2022/01/03 05:43:44;;;;;;;23.50;15.70;;;;;;;0.56;84.17;100330.44;107070;1249;67214;-75
2022/01/03 05:46:14;;;;;;;27.10;17.10;;;;;;;0.58;84.37;100328.83;106904;1251;73975;-71
2022/01/03 05:48:44;;;;;;;27.40;16.60;;;;;;;0.62;84.18;100342.05;107033;1251;60947;-76
2022/01/03 05:51:14;;;;;;;26.90;16.10;;;;;;;0.68;84.26;100324.86;106925;1252;61791;-77
2022/01/03 05:53:42;;;;;;;22.50;15.10;;;;;;;0.77;83.74;100315.25;107029;1252;74591;-75
2022/01/03 05:56:12;;;;;;;29.10;16.80;;;;;;;0.84;83.03;100311.73;106949;1252;71278;-73
2022/01/03 05:58:42;;;;;;;28.60;17.80;;;;;;;0.90;83.13;100309.96;106956;1251;71606;-76
2022/01/03 06:01:12;;;;;;;26.80;17.20;;;;;;;0.97;83.50;100314.84;106916;1251;75010;-73
2022/01/03 06:03:41;;;;;;;28.00;16.50;;;;;;;1.03;83.50;100303.42;106893;1252;62455;-75
2022/01/03 06:08:40;;;;;;;27.20;19.00;;;;;;;1.18;82.98;100305.09;107067;1251;74343;-76
2022/01/03 06:11:10;;;;;;;29.10;17.60;;;;;;;1.23;83.08;100322.38;106910;1251;73264;-72
2022/01/03 06:13:39;;;;;;;27.60;14.70;;;;;;;1.28;83.38;100324.25;109224;1249;69644;-73
2022/01/03 06:16:08;;;;;;;25.40;14.70;;;;;;;1.38;83.56;100325.55;107914;1251;72025;-72
2022/01/03 06:18:39;;;;;;;29.20;15.90;;;;;;;1.48;83.67;100327.90;109113;1252;60798;-73
2022/01/03 06:21:10;;;;;;;24.50;16.50;;;;;;;1.61;84.19;100318.77;108887;1252;60697;-74
2022/01/03 06:23:43;;;;;;;25.10;17.50;;;;;;;1.71;83.28;100319.21;107068;1254;72559;-69
2022/01/03 06:26:12;;;;;;;29.80;18.80;;;;;;;1.78;81.90;100306.36;106619;1254;70417;-70
2022/01/03 06:28:45;;;;;;;27.50;17.80;;;;;;;1.86;81.84;100291.61;106857;1254;68766;-81
2022/01/03 06:31:15;;;;;;;24.70;15.70;;;;;;;1.88;81.03;100303.73;106879;1255;73919;-78
2022/01/03 06:33:44;;;;;;;22.50;14.20;;;;;;;1.91;81.55;100305.31;106706;1255;61237;-79
2022/01/03 06:36:14;;;;;;;26.40;17.40;;;;;;;1.91;81.64;100299.64;106970;1254;61611;-79
2022/01/03 06:38:43;;;;;;;25.70;16.90;;;;;;;1.93;81.78;100312.77;106927;1255;72660;-82
2022/01/03 06:41:13;;;;;;;26.50;19.50;;;;;;;2.02;81.01;100315.83;106791;1254;72311;-80
2022/01/03 06:43:42;;;;;;;24.70;17.30;;;;;;;2.12;81.30;100310.77;107026;1253;70869;-80
2022/01/03 06:46:12;;;;;;;25.20;16.50;;;;;;;2.20;80.82;100314.72;107151;1251;74672;-79
2022/01/03 06:48:43;;;;;;;28.80;18.70;;;;;;;2.27;80.71;100317.15;107143;1251;61088;-79
2022/01/03 06:51:13;;;;;;;34.60;22.90;;;;;;;2.10;80.92;100316.67;107021;1252;59903;-80
2022/01/03 06:53:44;;;;;;;37.10;23.50;;;;;;;2.00;81.31;100312.98;107271;1251;73337;-79
2022/01/03 06:56:14;;;;;;;39.00;25.00;;;;;;;1.92;81.42;100315.04;107174;1253;72622;-80
2022/01/03 06:58:43;;;;;;;44.10;24.30;;;;;;;1.84;81.54;100314.73;107363;1252;70171;-79
2022/01/03 07:01:12;;;;;;;41.50;24.40;;;;;;;1.91;81.75;100310.46;107395;1250;72016;-83
2022/01/03 07:03:41;;;;;;;47.50;25.60;;;;;;;1.96;81.67;100310.08;107517;1249;59747;-83
2022/01/03 07:06:10;;;;;;;45.10;25.20;;;;;;;1.98;81.98;100304.48;107181;1251;60017;-80
2022/01/03 07:08:39;;;;;;;42.80;25.10;;;;;;;2.02;81.43;100300.55;106916;1254;73054;-83
2022/01/03 07:11:08;;;;;;;36.10;21.30;;;;;;;2.04;81.39;100311.98;107305;1249;73076;-83
2022/01/03 07:13:50;;;;;;;40.00;22.30;;;;;;;2.11;81.40;100309.63;107211;1250;69577;-85
2022/01/03 07:19:07;;;;;;;37.00;23.50;;;;;;;2.15;80.99;100307.70;107253;1249;60131;-80
2022/01/03 07:21:36;;;;;;;36.30;23.00;;;;;;;2.08;81.29;100291.67;107183;1249;59152;-79
2022/01/03 07:24:05;;;;;;;34.70;21.60;;;;;;;1.94;81.51;100292.83;107252;1249;71776;-78
2022/01/03 07:26:34;;;;;;;36.20;22.40;;;;;;;1.91;81.87;100286.23;107128;1251;71276;-82
2022/01/03 07:29:03;;;;;;;45.00;25.80;;;;;;;1.91;82.00;100283.50;107484;1249;68775;-82
2022/01/03 07:31:32;;;;;;;43.40;24.90;;;;;;;2.00;81.56;100287.92;107421;1250;72121;-81
2022/01/03 07:34:01;;;;;;;36.30;24.90;;;;;;;1.99;81.50;100289.86;107397;1249;59635;-80
2022/01/03 07:36:30;;;;;;;34.60;21.60;;;;;;;2.00;81.47;100283.98;107427;1249;60473;-81
2022/01/03 07:38:59;;;;;;;33.20;20.00;;;;;;;1.84;82.08;100284.48;107309;1250;74795;-85
2022/01/03 07:41:29;;;;;;;32.40;19.90;;;;;;;1.98;82.42;100288.55;107369;1249;71735;-83
2022/01/03 07:43:58;;;;;;;30.50;18.80;;;;;;;2.13;81.41;100283.77;107282;1249;69407;-81
2022/01/03 07:46:27;;;;;;;33.40;21.60;;;;;;;2.14;81.05;100278.02;107220;1250;73168;-81
2022/01/03 07:48:56;;;;;;;30.70;18.80;;;;;;;2.21;81.11;100291.46;107337;1249;60063;-84
2022/01/03 07:51:25;;;;;;;30.10;17.90;;;;;;;2.34;80.59;100287.44;107213;1252;59714;-82
2022/01/03 07:53:54;;;;;;;29.60;19.00;;;;;;;2.39;81.43;100281.53;107332;1249;73425;-81
2022/01/03 07:56:26;;;;;;;29.60;17.90;;;;;;;2.41;80.35;100283.16;107316;1250;70358;-81
2022/01/03 07:58:54;;;;;;;29.90;18.70;;;;;;;2.48;80.52;100285.61;107282;1251;67967;-79
2022/01/03 08:01:23;;;;;;;32.80;19.10;;;;;;;2.57;80.33;100288.77;107135;1252;72993;-78
2022/01/03 08:03:52;;;;;;;31.20;19.10;;;;;;;2.73;81.44;100290.48;107416;1249;60567;-82
2022/01/03 08:06:41;;;;;;;34.60;20.90;;;;;;;2.74;80.37;100297.46;107316;1251;60309;-79
2022/01/03 08:09:10;;;;;;;32.10;21.10;;;;;;;2.79;80.19;100298.10;107467;1251;73694;-82
2022/01/03 08:11:39;;;;;;;28.70;17.80;;;;;;;2.62;79.10;100290.80;107871;1251;70842;-86
2022/01/03 08:14:08;;;;;;;28.80;16.70;;;;;;;2.60;79.28;100287.10;107819;1251;68781;-87
2022/01/03 08:16:37;;;;;;;30.50;19.10;;;;;;;2.79;79.35;100301.55;107579;1250;72532;-80
2022/01/03 08:19:06;;;;;;;29.20;18.60;;;;;;;2.93;80.72;100300.73;107508;1250;59498;-79
2022/01/03 08:21:35;;;;;;;28.00;18.80;;;;;;;2.93;78.57;100288.30;107189;1253;61311;-84
2022/01/03 08:24:05;;;;;;;30.10;17.30;;;;;;;3.02;78.94;100282.56;107579;1249;74322;-82
2022/01/03 08:26:35;;;;;;;29.70;17.80;;;;;;;3.01;78.12;100278.82;107260;1250;72656;-81
2022/01/03 08:29:09;;;;;;;26.90;17.20;;;;;;;3.03;78.18;100267.56;107366;1249;69162;-79
2022/01/03 08:31:38;;;;;;;26.60;16.70;;;;;;;2.97;78.53;100261.98;107403;1250;74321;-83
2022/01/03 08:34:07;;;;;;;33.00;20.80;;;;;;;2.84;78.84;100254.01;107422;1249;63492;-80
2022/01/03 08:36:36;;;;;;;29.80;19.40;;;;;;;2.81;78.38;100264.80;107312;1251;60500;-82
2022/01/03 08:39:06;;;;;;;33.00;18.60;;;;;;;2.79;78.31;100262.34;107327;1249;72527;-84
2022/01/03 08:41:36;;;;;;;30.30;18.00;;;;;;;2.94;79.24;100252.02;107252;1250;71294;-80
2022/01/03 08:44:06;;;;;;;33.00;18.70;;;;;;;3.11;79.42;100248.09;107182;1249;70451;-77
2022/01/03 08:46:35;;;;;;;30.90;19.60;;;;;;;3.24;78.69;100250.67;107020;1250;74316;-77
2022/01/03 08:49:04;;;;;;;28.60;19.40;;;;;;;3.45;79.65;100261.16;107191;1249;62188;-75
2022/01/03 08:51:34;;;;;;;31.70;20.10;;;;;;;3.51;78.14;100248.86;107197;1249;62777;-79
2022/01/03 08:54:03;;;;;;;33.10;20.40;;;;;;;3.54;76.86;100240.96;107213;1249;74819;-77
2022/01/03 08:56:32;;;;;;;32.80;20.10;;;;;;;3.58;76.75;100238.16;107008;1251;71887;-76
2022/01/03 08:59:02;;;;;;;29.90;19.00;;;;;;;3.77;76.82;100236.98;107095;1249;72054;-78
2022/01/03 09:01:31;;;;;;;33.90;20.40;;;;;;;3.84;75.89;100227.84;107032;1249;74046;-81
2022/01/03 09:04:00;;;;;;;34.10;22.00;;;;;;;3.94;76.17;100234.75;107244;1249;59661;-83
2022/01/03 09:06:30;;;;;;;38.30;21.40;;;;;;;4.06;76.36;100229.08;107374;1250;61286;-81
2022/01/03 09:08:59;;;;;;;33.70;21.30;;;;;;;4.09;75.47;100224.15;107292;1249;73667;-82
2022/01/03 09:11:31;;;;;;;37.80;22.80;;;;;;;4.26;76.00;100222.55;107360;1248;71795;-82
2022/01/03 09:14:06;;;;;;;36.00;23.30;;;;;;;4.15;74.75;100217.76;107252;1249;68028;-82
2022/01/03 09:16:35;;;;;;;32.20;21.40;;;;;;;4.25;76.23;100213.42;107145;1249;73114;-85
2022/01/03 09:19:04;;;;;;;36.90;22.80;;;;;;;4.31;74.92;100208.65;107066;1251;62879;-77
2022/01/03 09:21:33;;;;;;;34.70;22.10;;;;;;;4.35;74.32;100207.23;107184;1249;60884;-81
2022/01/03 09:24:28;;;;;;;34.50;22.40;;;;;;;4.43;73.70;100208.84;107118;1249;76029;-74
2022/01/03 09:29:47;;;;;;;32.40;21.00;;;;;;;4.26;73.44;100196.13;107037;1250;71430;-71
2022/01/03 09:32:16;;;;;;;34.60;20.70;;;;;;;4.17;74.27;100204.05;107071;1252;72404;-74
2022/01/03 09:34:45;;;;;;;36.50;22.40;;;;;;;4.20;74.10;100203.73;107140;1249;59864;-73
2022/01/03 09:37:19;;;;;;;36.80;23.10;;;;;;;4.08;73.90;100197.95;107200;1249;60017;-78
2022/01/03 09:39:49;;;;;;;37.30;23.90;;;;;;;3.78;75.17;100185.63;106983;1247;73688;-71
2022/01/03 09:42:27;;;;;;;37.50;23.60;;;;;;;3.77;75.40;100186.89;107082;1249;72175;-73
2022/01/03 09:44:58;;;;;;;40.70;23.10;;;;;;;3.62;75.81;100185.23;107088;1250;69419;-80
2022/01/03 09:47:31;;;;;;;40.40;22.50;;;;;;;3.65;75.62;100191.29;107008;1250;73239;-77
2022/01/03 09:50:00;;;;;;;43.50;25.70;;;;;;;3.59;76.26;100191.23;107309;1251;60960;-76
2022/01/03 09:52:30;;;;;;;44.30;25.20;;;;;;;3.40;76.47;100198.79;107230;1252;59816;-70
2022/01/03 09:55:00;;;;;;;42.00;25.40;;;;;;;3.14;77.10;100188.57;107228;1249;73212;-74
2022/01/03 09:57:30;;;;;;;44.70;25.70;;;;;;;3.00;77.65;100186.31;107360;1249;72789;-72
2022/01/03 10:00:01;;;;;;;38.90;22.60;;;;;;;2.97;78.02;100179.94;107403;1249;69575;-78
2022/01/03 10:02:33;;;;;;;40.10;23.40;;;;;;;3.14;78.01;100182.70;107541;1249;73821;-74
2022/01/03 10:05:05;;;;;;;40.50;24.90;;;;;;;3.40;77.53;100184.65;107233;1250;61750;-73
2022/01/03 10:07:35;;;;;;;39.60;24.10;;;;;;;3.46;76.46;100173.16;107256;1251;60454;-73
2022/01/03 10:10:06;;;;;;;34.90;21.00;;;;;;;3.36;76.63;100174.20;107348;1250;73198;-76
2022/01/03 10:12:36;;;;;;;39.90;22.60;;;;;;;3.36;76.77;100171.10;107321;1249;72245;-72
2022/01/03 10:15:08;;;;;;;32.80;19.90;;;;;;;3.38;76.89;100170.13;107306;1251;69244;-74
2022/01/03 10:17:41;;;;;;;36.40;23.60;;;;;;;3.65;76.52;100165.12;107325;1251;71220;-74
2022/01/03 10:20:12;;;;;;;35.20;23.00;;;;;;;3.73;75.98;100166.25;107204;1249;59729;-76
2022/01/03 10:22:42;;;;;;;32.10;19.50;;;;;;;3.57;76.10;100169.30;107236;1252;59638;-74
2022/01/03 10:25:14;;;;;;;35.00;19.90;;;;;;;3.74;76.19;100169.12;107376;1249;72507;-73
2022/01/03 10:27:59;;;;;;;30.60;20.40;;;;;;;3.74;75.91;100167.39;107335;1249;69595;-71
2022/01/03 10:30:34;;;;;;;31.20;18.50;;;;;;;3.84;75.62;100173.22;107244;1251;68711;-78
2022/01/03 10:33:06;;;;;;;29.20;16.90;;;;;;;3.95;75.54;100164.55;107305;1249;74926;-71
2022/01/03 10:35:42;;;;;;;30.10;17.70;;;;;;;4.11;75.54;100162.16;107325;1249;62704;-71
2022/01/03 10:38:29;;;;;;;28.40;18.10;;;;;;;4.31;75.37;100153.98;107075;1251;59622;-74
2022/01/03 10:41:18;;;;;;;29.70;18.00;;;;;;;4.51;74.83;100153.39;107242;1249;73697;-72
2022/01/03 10:47:07;;;;;;;28.50;17.40;;;;;;;4.75;72.58;100162.02;107322;1249;69716;-69
2022/01/03 10:49:39;;;;;;;24.60;17.10;;;;;;;4.99;72.43;100163.38;106864;1251;73958;-65
2022/01/03 10:52:20;;;;;;;;;;;;;;;5.08;71.61;100164.45;107361;1249;60161;-69
2022/01/03 10:55:11;;;;;;;27.50;17.10;;;;;;;5.01;71.60;100168.31;107026;1249;61253;-71
2022/01/03 10:57:56;;;;;;;30.40;18.10;;;;;;;5.00;71.89;100163.02;107177;1249;72948;-72
2022/01/03 11:00:49;;;;;;;31.40;17.60;;;;;;;5.49;70.99;100163.25;107199;1249;70757;-79
2022/01/03 11:03:37;;;;;;;29.30;18.60;;;;;;;5.79;69.97;100161.08;107238;1249;71196;-76
2022/01/03 11:06:22;;;;;;;31.70;20.40;;;;;;;5.72;68.45;100157.85;107285;1251;72016;-73
2022/01/03 11:12:19;;;;;;;29.80;18.70;;;;;;;5.93;68.59;100149.15;106917;1255;59818;-73
2022/01/03 11:14:48;;;;;;;28.60;19.00;;;;;;;6.52;69.09;100143.55;107468;1248;72704;-75
2022/01/03 11:17:28;;;;;;;26.00;18.40;;;;;;;6.36;66.77;100131.63;107264;1249;72714;-75
2022/01/03 11:20:00;;;;;;;24.30;17.40;;;;;;;6.55;65.95;100127.80;107433;1249;67487;-74
2022/01/03 11:22:49;;;;;;;26.60;18.20;;;;;;;6.73;65.90;100119.65;107267;1249;73468;-75
2022/01/03 11:25:31;;;;;;;28.40;18.60;;;;;;;6.83;65.16;100120.25;107478;1249;59462;-75
2022/01/03 11:28:01;;;;;;;26.60;15.60;;;;;;;6.73;65.93;100124.88;107326;1249;61337;-76
2022/01/03 11:30:32;;;;;;;28.10;17.50;;;;;;;6.79;65.70;100125.71;107223;1249;74092;-75
2022/01/03 11:33:04;;;;;;;26.90;17.50;;;;;;;6.98;65.86;100129.13;107242;1249;73390;-74
2022/01/03 11:35:33;;;;;;;27.70;19.00;;;;;;;6.83;64.52;100133.20;107107;1249;68412;-74
2022/01/03 11:38:07;;;;;;;28.90;18.10;;;;;;;6.18;66.42;100130.67;107304;1249;75338;-75
2022/01/03 11:40:37;;;;;;;25.20;17.50;;;;;;;6.01;67.44;100126.55;106879;1250;62254;-76
2022/01/03 11:43:07;;;;;;;31.00;19.90;;;;;;;6.07;67.27;100129.64;107081;1249;59927;-76
2022/01/03 11:45:37;;;;;;;32.10;20.20;;;;;;;6.06;67.62;100133.00;107023;1252;73348;-73
2022/01/03 11:48:11;;;;;;;29.60;21.10;;;;;;;6.21;67.10;100133.25;107125;1249;72235;-76